Time;durP1;ratioP1;P1;durP2;ratioP2;P2;SDS_P1;SDS_P2;PMS_P1;PMS_P2;Temp;Humidity;BMP_temperature;BMP_pressure;BME280_temperature;BME280_humidity;BME280_pressure;Samples;Min_cycle;Max_cycle;Signal;HPM_P1;HPM_P2
2022/04/19 00:01:59;;;;;;;9.00;5.78;;;;;;;;;;5283805;28;20380;-67
2022/04/19 00:04:31;;;;;;;7.68;5.45;;;;;;;;;;5283041;28;20016;-67
2022/04/19 00:07:03;;;;;;;8.27;5.30;;;;;;;;;;5282463;28;20016;-67
2022/04/19 00:09:34;;;;;;;6.63;5.47;;;;;;;;;;5283166;28;20119;-67
2022/04/19 00:12:07;;;;;;;10.55;6.30;;;;;;;;;;5282821;28;20401;-67
2022/04/19 00:14:38;;;;;;;7.60;5.82;;;;;;;;;;5282773;28;20125;-67
2022/04/19 00:17:10;;;;;;;9.43;5.25;;;;;;;;;;5283110;28;20036;-67
2022/04/19 00:19:41;;;;;;;6.40;5.50;;;;;;;;;;5281778;28;20051;-67
2022/04/19 00:22:12;;;;;;;9.32;5.40;;;;;;;;;;5283345;28;20271;-67
2022/04/19 00:24:43;;;;;;;7.70;5.25;;;;;;;;;;5282800;28;20311;-67
2022/04/19 00:27:15;;;;;;;7.32;5.38;;;;;;;;;;5282275;28;20071;-66
2022/04/19 00:29:47;;;;;;;8.95;5.50;;;;;;;;;;5282533;28;20025;-66
2022/04/19 00:32:18;;;;;;;7.57;6.15;;;;;;;;;;5282854;28;20009;-67
2022/04/19 00:34:49;;;;;;;8.25;4.72;;;;;;;;;;5281814;28;20147;-67
2022/04/19 00:37:21;;;;;;;7.85;5.18;;;;;;;;;;5282595;28;20382;-67
2022/04/19 00:39:53;;;;;;;7.28;5.18;;;;;;;;;;5282256;28;20009;-67
2022/04/19 00:42:27;;;;;;;7.25;5.00;;;;;;;;;;5281315;28;20032;-67
2022/04/19 00:44:59;;;;;;;6.70;5.32;;;;;;;;;;5282986;28;20082;-67
2022/04/19 00:47:32;;;;;;;6.88;5.63;;;;;;;;;;5281340;28;20028;-68
2022/04/19 00:50:04;;;;;;;6.38;5.35;;;;;;;;;;5282571;28;20016;-67
2022/04/19 00:52:37;;;;;;;7.95;5.50;;;;;;;;;;5281831;28;20418;-67
2022/04/19 00:55:08;;;;;;;5.63;4.30;;;;;;;;;;5281633;28;20425;-66
2022/04/19 00:57:40;;;;;;;6.57;5.13;;;;;;;;;;5282070;28;20020;-67
2022/04/19 01:00:12;;;;;;;8.15;5.50;;;;;;;;;;5282628;28;20536;-66
2022/04/19 01:02:44;;;;;;;7.30;5.50;;;;;;;;;;5281207;28;20012;-67
2022/04/19 01:05:16;;;;;;;6.85;5.32;;;;;;;;;;5282295;28;20021;-67
2022/04/19 01:07:47;;;;;;;8.38;5.70;;;;;;;;;;5281506;28;20035;-67
2022/04/19 01:10:18;;;;;;;7.28;5.93;;;;;;;;;;5281321;28;20371;-67
2022/04/19 01:15:41;;;;;;;12.40;6.28;;;;;;;;;;5281050;28;20049;-66
2022/04/19 01:18:13;;;;;;;6.72;5.30;;;;;;;;;;5282134;28;20032;-66
2022/04/19 01:20:44;;;;;;;9.02;5.47;;;;;;;;;;5281641;28;20117;-66
2022/04/19 01:23:18;;;;;;;7.20;5.80;;;;;;;;;;5281339;28;20021;-67
2022/04/19 01:25:49;;;;;;;8.30;6.28;;;;;;;;;;5281747;28;20352;-66
2022/04/19 01:28:21;;;;;;;9.88;6.75;;;;;;;;;;5281605;28;20043;-66
2022/04/19 01:30:54;;;;;;;9.55;6.97;;;;;;;;;;5281392;28;20036;-67
2022/04/19 01:33:25;;;;;;;10.57;7.43;;;;;;;;;;5281176;28;20052;-66
2022/04/19 01:35:56;;;;;;;9.20;8.14;;;;;;;;;;5281923;28;20059;-67
2022/04/19 01:38:27;;;;;;;10.10;8.35;;;;;;;;;;5280517;28;20078;-68
2022/04/19 01:40:58;;;;;;;9.75;8.15;;;;;;;;;;5281763;28;20621;-66
2022/04/19 01:43:29;;;;;;;11.10;8.18;;;;;;;;;;5280698;28;20362;-68
2022/04/19 01:46:01;;;;;;;13.70;9.23;;;;;;;;;;5281944;28;20262;-68
2022/04/19 01:48:32;;;;;;;13.27;8.85;;;;;;;;;;5281113;28;20036;-67
2022/04/19 01:51:03;;;;;;;13.90;9.52;;;;;;;;;;5280984;28;20355;-68
2022/04/19 01:53:34;;;;;;;11.20;9.30;;;;;;;;;;5281064;28;20025;-68
2022/04/19 01:56:07;;;;;;;10.60;8.88;;;;;;;;;;5281721;28;20101;-68
2022/04/19 01:58:38;;;;;;;13.80;9.18;;;;;;;;;;5280357;28;20031;-68
2022/04/19 02:01:09;;;;;;;10.84;8.96;;;;;;;;;;5281571;28;20095;-68
2022/04/19 02:03:41;;;;;;;10.35;8.98;;;;;;;;;;5281053;28;20025;-68
2022/04/19 02:06:12;;;;;;;9.73;7.88;;;;;;;;;;5280982;28;20020;-68
2022/04/19 02:08:43;;;;;;;10.70;9.55;;;;;;;;;;5280981;28;20193;-66
2022/04/19 02:11:14;;;;;;;10.63;8.95;;;;;;;;;;5281592;28;20066;-67
2022/04/19 02:13:46;;;;;;;12.05;10.02;;;;;;;;;;5279843;28;20054;-67
2022/04/19 02:16:17;;;;;;;14.10;9.88;;;;;;;;;;5281373;28;20441;-66
2022/04/19 02:18:49;;;;;;;12.82;9.73;;;;;;;;;;5280130;28;20024;-66
2022/04/19 02:21:20;;;;;;;14.56;9.84;;;;;;;;;;5281033;28;20504;-66
2022/04/19 02:23:51;;;;;;;13.27;10.45;;;;;;;;;;5280952;28;20036;-67
2022/04/19 02:26:23;;;;;;;12.48;10.52;;;;;;;;;;5279909;28;20251;-66
2022/04/19 02:28:55;;;;;;;13.60;9.68;;;;;;;;;;5281133;28;20044;-66
2022/04/19 02:31:27;;;;;;;14.82;9.95;;;;;;;;;;5280813;28;20016;-67
2022/04/19 02:33:59;;;;;;;15.50;10.75;;;;;;;;;;5280874;28;20024;-67
2022/04/19 02:36:30;;;;;;;15.15;10.60;;;;;;;;;;5280819;28;20020;-67
2022/04/19 02:39:01;;;;;;;15.02;10.25;;;;;;;;;;5281264;28;20737;-67
2022/04/19 02:41:32;;;;;;;10.48;9.38;;;;;;;;;;5280117;28;20263;-67
2022/04/19 02:44:05;;;;;;;13.38;10.25;;;;;;;;;;5281426;28;20013;-67
2022/04/19 02:46:37;;;;;;;11.85;10.02;;;;;;;;;;5280120;28;20054;-67
2022/04/19 02:49:08;;;;;;;13.02;11.02;;;;;;;;;;5281207;28;20498;-67
2022/04/19 02:51:39;;;;;;;14.25;11.05;;;;;;;;;;5280602;28;20017;-68
2022/04/19 02:54:11;;;;;;;18.25;10.85;;;;;;;;;;5280555;28;20070;-67
2022/04/19 02:56:42;;;;;;;15.00;11.13;;;;;;;;;;5280762;28;20282;-67
2022/04/19 02:59:13;;;;;;;13.05;10.55;;;;;;;;;;5281199;28;20031;-67
2022/04/19 03:01:44;;;;;;;14.65;10.70;;;;;;;;;;5281073;28;20016;-67
2022/04/19 03:04:15;;;;;;;13.94;10.74;;;;;;;;;;5284786;28;20032;-67
2022/04/19 03:06:47;;;;;;;12.90;11.25;;;;;;;;;;5283981;28;20023;-67
2022/04/19 03:09:18;;;;;;;11.88;10.48;;;;;;;;;;5283755;28;20482;-67
2022/04/19 03:11:49;;;;;;;13.90;11.38;;;;;;;;;;5284262;28;20016;-68
2022/04/19 03:14:21;;;;;;;17.20;11.45;;;;;;;;;;5284292;28;20066;-68
2022/04/19 03:16:52;;;;;;;14.75;10.68;;;;;;;;;;5283830;28;20278;-67
2022/04/19 03:19:24;;;;;;;13.88;10.40;;;;;;;;;;5266183;28;20048;-68
2022/04/19 03:21:55;;;;;;;14.27;10.75;;;;;;;;;;5284004;28;20028;-68
2022/04/19 03:30:06;;;;;;;14.07;9.45;;;;;;;;;;5284049;28;20024;-68
2022/04/19 03:32:37;;;;;;;11.38;9.38;;;;;;;;;;5283777;28;20424;-67
2022/04/19 03:35:08;;;;;;;11.05;9.73;;;;;;;;;;5284279;28;20032;-68
2022/04/19 03:37:40;;;;;;;11.55;10.25;;;;;;;;;;5282780;28;20024;-68
2022/04/19 03:40:11;;;;;;;12.27;9.23;;;;;;;;;;5283945;28;20032;-68
2022/04/19 03:42:42;;;;;;;10.68;9.23;;;;;;;;;;5283922;28;20391;-67
2022/04/19 03:45:13;;;;;;;13.38;9.63;;;;;;;;;;5283404;28;20426;-68
2022/04/19 03:47:44;;;;;;;12.90;8.92;;;;;;;;;;5283332;28;20464;-67
2022/04/19 03:50:16;;;;;;;11.07;8.48;;;;;;;;;;5283154;28;20020;-67
2022/04/19 03:52:49;;;;;;;10.60;8.80;;;;;;;;;;5283506;28;20059;-67
2022/04/19 03:55:20;;;;;;;10.07;8.65;;;;;;;;;;5283782;28;20017;-68
2022/04/19 03:57:51;;;;;;;10.48;8.04;;;;;;;;;;5282665;28;20032;-67
2022/04/19 04:00:22;;;;;;;10.23;8.57;;;;;;;;;;5283199;28;20025;-67
2022/04/19 04:02:54;;;;;;;11.05;9.10;;;;;;;;;;5283908;28;20263;-67
2022/04/19 04:05:25;;;;;;;13.02;9.02;;;;;;;;;;5282598;28;20021;-68
2022/04/19 04:07:56;;;;;;;11.50;8.68;;;;;;;;;;5283714;28;20028;-67
2022/04/19 04:10:28;;;;;;;10.88;8.65;;;;;;;;;;5283093;28;20320;-67
2022/04/19 04:13:00;;;;;;;11.76;8.98;;;;;;;;;;5281450;28;20021;-67
2022/04/19 04:15:31;;;;;;;10.52;8.40;;;;;;;;;;5283161;28;20041;-67
2022/04/19 04:18:02;;;;;;;14.68;9.55;;;;;;;;;;5282969;28;20028;-67
2022/04/19 04:20:34;;;;;;;10.02;8.23;;;;;;;;;;5282616;28;20028;-67
2022/04/19 04:23:05;;;;;;;9.55;8.35;;;;;;;;;;5283198;28;20028;-67
2022/04/19 04:25:36;;;;;;;9.70;7.85;;;;;;;;;;5282222;28;20025;-67
2022/04/19 04:28:07;;;;;;;11.80;8.90;;;;;;;;;;5282983;28;20032;-67
2022/04/19 04:30:38;;;;;;;12.06;8.40;;;;;;;;;;5282509;28;20036;-67
2022/04/19 04:33:09;;;;;;;12.50;8.56;;;;;;;;;;5282128;28;20031;-67
2022/04/19 04:35:41;;;;;;;14.12;9.26;;;;;;;;;;5282218;28;20352;-67
2022/04/19 04:38:12;;;;;;;13.90;8.72;;;;;;;;;;5282576;28;20026;-67
2022/04/19 04:40:43;;;;;;;12.00;7.82;;;;;;;;;;5281658;28;20088;-67
2022/04/19 04:43:14;;;;;;;10.82;8.57;;;;;;;;;;5282670;28;20032;-67
2022/04/19 04:49:35;;;;;;;15.60;9.82;;;;;;;;;;5282311;28;20020;-68
2022/04/19 04:51:26;;;;;;;15.20;10.35;;;;;;;;;;5282159;28;20115;-67
2022/04/19 04:53:57;;;;;;;12.93;10.10;;;;;;;;;;5281878;28;20096;-66
2022/04/19 04:56:28;;;;;;;11.90;9.42;;;;;;;;;;5281999;28;20024;-66
2022/04/19 04:59:00;;;;;;;12.07;10.18;;;;;;;;;;5282792;28;20025;-67
2022/04/19 05:01:31;;;;;;;12.35;9.43;;;;;;;;;;5281309;28;20035;-66
2022/04/19 05:04:02;;;;;;;13.10;9.34;;;;;;;;;;5282560;28;20051;-68
2022/04/19 05:06:33;;;;;;;13.80;10.40;;;;;;;;;;5281804;28;20024;-68
2022/04/19 05:09:04;;;;;;;11.22;9.92;;;;;;;;;;5281245;28;20047;-68
2022/04/19 05:11:35;;;;;;;12.82;9.52;;;;;;;;;;5281804;28;20009;-68
2022/04/19 05:14:10;;;;;;;14.98;9.93;;;;;;;;;;5281732;28;20336;-66
2022/04/19 05:16:42;;;;;;;13.32;9.57;;;;;;;;;;5280684;28;20024;-67
2022/04/19 05:19:13;;;;;;;13.65;9.27;;;;;;;;;;5281896;28;20058;-66
2022/04/19 05:21:44;;;;;;;12.93;9.73;;;;;;;;;;5280876;28;20467;-67
2022/04/19 05:24:15;;;;;;;17.80;10.30;;;;;;;;;;5281704;28;20034;-68
2022/04/19 05:26:47;;;;;;;16.63;9.88;;;;;;;;;;5281516;28;20025;-68
2022/04/19 05:29:18;;;;;;;14.86;10.52;;;;;;;;;;5281093;28;20036;-67
2022/04/19 05:31:50;;;;;;;16.00;10.15;;;;;;;;;;5281576;28;20020;-67
2022/04/19 05:34:21;;;;;;;15.23;9.88;;;;;;;;;;5281200;28;20012;-67
2022/04/19 05:36:52;;;;;;;16.42;10.88;;;;;;;;;;5281247;28;20016;-68
2022/04/19 05:39:23;;;;;;;12.50;10.48;;;;;;;;;;5281378;28;20387;-68
2022/04/19 05:41:55;;;;;;;18.45;10.75;;;;;;;;;;5281620;28;20062;-68
2022/04/19 05:44:26;;;;;;;16.92;10.82;;;;;;;;;;5280242;28;20823;-67
2022/04/19 05:46:57;;;;;;;14.85;10.43;;;;;;;;;;5281910;28;20024;-67
2022/04/19 05:49:28;;;;;;;20.80;11.27;;;;;;;;;;5280816;28;20044;-67
2022/04/19 05:52:00;;;;;;;15.65;10.30;;;;;;;;;;5281191;28;20032;-67
2022/04/19 05:54:31;;;;;;;16.83;10.63;;;;;;;;;;5281084;28;20685;-66
2022/04/19 05:57:02;;;;;;;21.10;9.58;;;;;;;;;;5280684;28;20021;-67
2022/04/19 05:59:33;;;;;;;14.45;11.48;;;;;;;;;;5280574;28;20022;-68
2022/04/19 06:04:54;;;;;;;15.50;9.98;;;;;;;;;;5281007;28;20059;-67
2022/04/19 06:07:26;;;;;;;15.10;11.05;;;;;;;;;;5280641;28;20060;-68
2022/04/19 06:09:58;;;;;;;14.82;10.95;;;;;;;;;;5281123;28;20401;-68
2022/04/19 06:12:29;;;;;;;18.42;10.55;;;;;;;;;;5280348;28;20403;-68
2022/04/19 06:15:00;;;;;;;14.50;11.20;;;;;;;;;;5281243;28;20060;-67
2022/04/19 06:17:32;;;;;;;16.77;10.07;;;;;;;;;;5280680;28;20283;-67
2022/04/19 06:20:04;;;;;;;11.40;9.32;;;;;;;;;;5280591;28;20031;-68
2022/04/19 06:22:35;;;;;;;15.50;9.98;;;;;;;;;;5280715;28;20009;-68
2022/04/19 06:25:07;;;;;;;14.68;9.90;;;;;;;;;;5277258;28;20020;-67
2022/04/19 06:27:39;;;;;;;14.63;9.15;;;;;;;;;;5280072;28;20282;-66
2022/04/19 06:30:10;;;;;;;14.23;9.45;;;;;;;;;;5280611;28;20028;-66
2022/04/19 06:32:42;;;;;;;14.98;10.15;;;;;;;;;;5279599;28;20021;-67
2022/04/19 06:35:13;;;;;;;13.40;9.73;;;;;;;;;;5280965;28;20020;-67
2022/04/19 06:37:44;;;;;;;13.65;9.25;;;;;;;;;;5283238;28;20043;-67
2022/04/19 06:40:15;;;;;;;12.52;8.95;;;;;;;;;;5284345;28;20029;-66
2022/04/19 06:42:46;;;;;;;13.35;9.30;;;;;;;;;;5284431;28;20082;-67
2022/04/19 06:45:18;;;;;;;11.65;9.10;;;;;;;;;;5284824;28;20025;-67
2022/04/19 06:48:02;;;;;;;13.20;9.52;;;;;;;;;;5283786;28;20044;-67
2022/04/19 06:50:33;;;;;;;13.38;9.73;;;;;;;;;;5284220;28;20019;-67
2022/04/19 06:53:04;;;;;;;13.75;9.32;;;;;;;;;;5283947;28;20358;-66
2022/04/19 06:55:35;;;;;;;15.77;10.32;;;;;;;;;;5284200;28;20626;-66
2022/04/19 06:58:06;;;;;;;14.90;9.45;;;;;;;;;;5285128;28;20431;-66
2022/04/19 07:00:37;;;;;;;13.95;9.20;;;;;;;;;;5283422;28;20277;-68
2022/04/19 07:03:09;;;;;;;17.20;9.32;;;;;;;;;;5284674;28;20456;-66
2022/04/19 07:05:40;;;;;;;12.93;8.70;;;;;;;;;;5284138;28;20649;-66
2022/04/19 07:08:11;;;;;;;13.50;10.10;;;;;;;;;;5283887;28;20036;-66
2022/04/19 07:10:43;;;;;;;13.20;9.05;;;;;;;;;;5284030;28;20259;-67
2022/04/19 07:13:14;;;;;;;12.02;9.63;;;;;;;;;;5284476;28;20104;-67
2022/04/19 07:15:45;;;;;;;13.68;9.60;;;;;;;;;;5283202;28;20028;-67
2022/04/19 07:18:17;;;;;;;14.98;9.00;;;;;;;;;;5284436;28;20320;-67
2022/04/19 07:26:40;;;;;;;12.18;9.43;;;;;;;;;;5283889;28;20029;-67
2022/04/19 07:29:12;;;;;;;12.75;9.38;;;;;;;;;;5283522;28;20029;-67
2022/04/19 07:31:43;;;;;;;11.43;8.95;;;;;;;;;;5283927;28;20543;-67
2022/04/19 07:34:15;;;;;;;11.07;9.13;;;;;;;;;;5284397;28;20024;-68
2022/04/19 07:36:46;;;;;;;13.65;9.05;;;;;;;;;;5283008;28;20017;-67
2022/04/19 07:39:18;;;;;;;11.73;9.15;;;;;;;;;;5284141;28;20104;-69
2022/04/19 07:41:50;;;;;;;12.18;8.55;;;;;;;;;;5283853;28;20020;-67
2022/04/19 07:44:22;;;;;;;12.10;9.05;;;;;;;;;;5282919;28;20042;-68
2022/04/19 07:46:53;;;;;;;12.65;9.00;;;;;;;;;;5284060;28;20034;-70
2022/04/19 07:49:25;;;;;;;11.57;8.55;;;;;;;;;;5282574;28;20028;-67
2022/04/19 07:51:56;;;;;;;12.55;8.23;;;;;;;;;;5284198;28;20297;-66
2022/04/19 07:54:27;;;;;;;10.32;7.85;;;;;;;;;;5283535;28;20267;-67
2022/04/19 07:56:58;;;;;;;11.10;8.00;;;;;;;;;;5283268;28;20270;-67
2022/04/19 07:59:29;;;;;;;8.85;6.85;;;;;;;;;;5283197;28;20099;-67
2022/04/19 08:02:00;;;;;;;8.85;7.13;;;;;;;;;;5283678;28;20024;-68
2022/04/19 08:04:31;;;;;;;11.27;8.20;;;;;;;;;;5282557;28;20656;-68
2022/04/19 08:07:03;;;;;;;16.03;7.83;;;;;;;;;;5283798;28;20321;-68
2022/04/19 08:09:34;;;;;;;12.13;6.50;;;;;;;;;;5283162;28;20278;-68
2022/04/19 08:12:05;;;;;;;11.77;8.10;;;;;;;;;;5282684;28;20017;-68
2022/04/19 08:14:36;;;;;;;15.73;7.95;;;;;;;;;;5282538;28;20373;-68
2022/04/19 08:17:08;;;;;;;12.32;7.82;;;;;;;;;;5283579;28;20556;-67
2022/04/19 08:19:39;;;;;;;12.93;8.30;;;;;;;;;;5282112;28;20016;-67
2022/04/19 08:22:10;;;;;;;12.83;6.83;;;;;;;;;;5283482;28;20536;-67
2022/04/19 08:24:41;;;;;;;11.38;7.80;;;;;;;;;;5282063;28;20285;-68
2022/04/19 08:27:14;;;;;;;11.88;7.85;;;;;;;;;;5283266;28;20529;-68
2022/04/19 08:29:46;;;;;;;13.20;7.68;;;;;;;;;;5282834;28;20096;-67
2022/04/19 08:32:17;;;;;;;11.00;7.18;;;;;;;;;;5282430;28;20116;-67
2022/04/19 08:34:48;;;;;;;29.75;8.20;;;;;;;;;;5282601;28;20021;-67
2022/04/19 08:37:20;;;;;;;9.00;6.55;;;;;;;;;;5282662;28;20024;-67
2022/04/19 08:39:51;;;;;;;8.88;6.38;;;;;;;;;;5281978;28;20020;-67
2022/04/19 08:42:22;;;;;;;15.55;7.60;;;;;;;;;;5282504;28;20107;-68
2022/04/19 08:44:53;;;;;;;15.13;7.28;;;;;;;;;;5283050;28;20024;-67
2022/04/19 08:47:24;;;;;;;10.00;6.22;;;;;;;;;;5281487;28;20059;-67
2022/04/19 08:49:56;;;;;;;12.10;6.40;;;;;;;;;;5282817;28;20274;-66
2022/04/19 08:52:27;;;;;;;8.38;6.47;;;;;;;;;;5281705;28;20025;-66
2022/04/19 08:57:48;;;;;;;8.02;4.75;;;;;;;;;;5282031;28;20059;-67
2022/04/19 09:00:23;;;;;;;6.63;3.97;;;;;;;;;;5281006;28;20111;-67
2022/04/19 09:02:58;;;;;;;5.43;3.72;;;;;;;;;;5282717;28;20020;-66
2022/04/19 09:05:29;;;;;;;5.65;3.63;;;;;;;;;;5282216;28;20017;-66
2022/04/19 09:08:00;;;;;;;5.28;3.10;;;;;;;;;;5281531;28;20028;-66
2022/04/19 09:10:32;;;;;;;5.65;3.83;;;;;;;;;;5281845;28;20475;-67
2022/04/19 09:13:05;;;;;;;7.63;4.05;;;;;;;;;;5282222;28;20078;-67
2022/04/19 09:15:36;;;;;;;7.60;3.92;;;;;;;;;;5281156;28;20357;-70
2022/04/19 09:18:29;;;;;;;7.65;4.18;;;;;;;;;;5282421;28;20021;-68
2022/04/19 09:21:02;;;;;;;6.88;4.53;;;;;;;;;;5281294;28;20031;-68
2022/04/19 09:23:34;;;;;;;6.97;3.88;;;;;;;;;;5281535;28;20021;-68
2022/04/19 09:26:05;;;;;;;8.60;4.40;;;;;;;;;;5282336;28;20031;-68
2022/04/19 09:28:38;;;;;;;5.70;3.63;;;;;;;;;;5280648;28;20028;-68
2022/04/19 09:31:11;;;;;;;6.15;3.83;;;;;;;;;;5282161;28;20525;-66
2022/04/19 09:33:42;;;;;;;6.70;3.70;;;;;;;;;;5281386;28;20025;-66
2022/04/19 09:36:13;;;;;;;5.70;3.63;;;;;;;;;;5281225;28;20102;-68
2022/04/19 09:38:47;;;;;;;5.70;3.70;;;;;;;;;;5281496;28;20714;-68
2022/04/19 09:41:31;;;;;;;6.15;3.85;;;;;;;;;;5281874;28;20067;-66
2022/04/19 09:44:12;;;;;;;5.50;3.15;;;;;;;;;;5281016;28;20119;-66
2022/04/19 09:47:04;;;;;;;5.90;3.40;;;;;;;;;;5281474;28;20379;-66
2022/04/19 09:49:46;;;;;;;7.10;3.55;;;;;;;;;;5280395;28;20052;-67
2022/04/19 09:52:20;;;;;;;4.50;2.78;;;;;;;;;;5281517;28;20029;-67
2022/04/19 09:55:05;;;;;;;3.75;1.98;;;;;;;;;;5281551;28;20460;-67
2022/04/19 09:57:39;;;;;;;4.50;2.72;;;;;;;;;;5280506;28;20043;-67
2022/04/19 10:00:12;;;;;;;4.63;2.67;;;;;;;;;;5281746;28;20023;-67
2022/04/19 10:08:25;;;;;;;5.35;2.80;;;;;;;;;;5280972;28;20029;-67
2022/04/19 10:10:56;;;;;;;8.77;3.35;;;;;;;;;;5280871;28;20029;-67
2022/04/19 10:13:29;;;;;;;7.45;3.17;;;;;;;;;;5285117;28;20087;-67
2022/04/19 10:16:00;;;;;;;5.30;3.28;;;;;;;;;;5286032;28;20024;-67
2022/04/19 10:18:34;;;;;;;5.05;3.47;;;;;;;;;;5284384;28;20032;-67
2022/04/19 10:21:06;;;;;;;5.50;2.85;;;;;;;;;;5285869;28;20016;-67
2022/04/19 10:23:38;;;;;;;6.05;3.22;;;;;;;;;;5284956;28;20166;-67
2022/04/19 10:26:18;;;;;;;4.72;3.00;;;;;;;;;;5284922;28;20037;-67
2022/04/19 10:28:51;;;;;;;7.30;3.38;;;;;;;;;;5285429;28;20079;-67
2022/04/19 10:31:25;;;;;;;4.88;2.85;;;;;;;;;;5284186;28;20028;-66
2022/04/19 10:34:00;;;;;;;7.90;4.00;;;;;;;;;;5285435;28;20024;-67
2022/04/19 10:36:39;;;;;;;5.60;3.30;;;;;;;;;;5285031;28;20061;-66
2022/04/19 10:39:16;;;;;;;5.75;3.03;;;;;;;;;;5284877;28;20119;-67
2022/04/19 10:41:52;;;;;;;5.50;3.80;;;;;;;;;;5284665;28;20020;-67
2022/04/19 10:44:43;;;;;;;7.95;3.65;;;;;;;;;;5284409;28;20016;-66
2022/04/19 10:47:15;;;;;;;5.40;3.90;;;;;;;;;;5284426;28;20024;-67
2022/04/19 10:49:48;;;;;;;7.07;4.13;;;;;;;;;;5284707;28;20028;-67
2022/04/19 10:52:38;;;;;;;6.30;3.20;;;;;;;;;;5284082;28;20032;-67
2022/04/19 10:55:09;;;;;;;6.35;3.60;;;;;;;;;;5284802;28;20024;-67
2022/04/19 11:00:34;;;;;;;6.05;3.03;;;;;;;;;;5284251;28;20473;-67
2022/04/19 11:03:09;;;;;;;4.53;1.95;;;;;;;;;;5284628;28;20104;-66
2022/04/19 11:05:46;;;;;;;4.72;2.80;;;;;;;;;;5284444;28;20020;-68
2022/04/19 11:08:27;;;;;;;7.03;2.85;;;;;;;;;;5284216;28;20036;-67
2022/04/19 11:10:58;;;;;;;5.63;3.35;;;;;;;;;;5284647;28;20134;-67
2022/04/19 11:13:31;;;;;;;5.65;2.95;;;;;;;;;;5283083;28;20066;-67
2022/04/19 11:16:05;;;;;;;7.07;3.85;;;;;;;;;;5284642;28;20027;-67
2022/04/19 11:18:39;;;;;;;5.32;3.25;;;;;;;;;;5284073;28;20031;-67
2022/04/19 11:21:11;;;;;;;5.90;3.15;;;;;;;;;;5283564;28;20413;-67
2022/04/19 11:23:43;;;;;;;6.82;3.40;;;;;;;;;;5283342;28;20012;-67
2022/04/19 11:26:26;;;;;;;5.83;3.67;;;;;;;;;;5284199;28;20023;-67
2022/04/19 11:29:09;;;;;;;7.88;3.50;;;;;;;;;;5283572;28;20298;-67
2022/04/19 11:31:43;;;;;;;8.60;4.15;;;;;;;;;;5283748;28;20084;-66
2022/04/19 11:34:15;;;;;;;5.80;3.17;;;;;;;;;;5283653;28;20044;-66
2022/04/19 11:36:47;;;;;;;5.25;3.17;;;;;;;;;;5283737;28;20029;-67
2022/04/19 11:46:43;;;;;;;9.07;4.00;;;;;;;;;;5284197;28;20024;-67
2022/04/19 11:48:05;;;;;;;8.50;4.53;;;;;;;;;;5284163;28;20036;-66
2022/04/19 11:50:36;;;;;;;9.23;3.80;;;;;;;;;;5282382;28;20050;-66
2022/04/19 11:53:15;;;;;;;10.85;3.78;;;;;;;;;;5283964;28;20024;-66
2022/04/19 11:55:50;;;;;;;7.68;4.07;;;;;;;;;;5283009;28;20028;-66
2022/04/19 11:58:22;;;;;;;9.48;3.20;;;;;;;;;;5283455;28;20025;-67
2022/04/19 12:01:01;;;;;;;5.75;3.05;;;;;;;;;;5283968;28;20008;-67
2022/04/19 12:03:33;;;;;;;8.80;4.05;;;;;;;;;;5282453;28;20032;-67
2022/04/19 12:06:12;;;;;;;7.72;3.10;;;;;;;;;;5283811;28;20540;-66
2022/04/19 12:08:43;;;;;;;;;;;;;;;;;;5283715;28;20418;-66
2022/04/19 12:11:16;;;;;;;6.10;3.78;;;;;;;;;;5282863;28;19915;-66
2022/04/19 12:13:48;;;;;;;7.63;3.10;;;;;;;;;;5282845;28;20390;-66
2022/04/19 12:16:34;;;;;;;8.48;3.95;;;;;;;;;;5282701;28;20103;-67
2022/04/19 12:19:12;;;;;;;6.63;3.72;;;;;;;;;;5283605;28;20051;-66
2022/04/19 12:21:44;;;;;;;5.97;2.97;;;;;;;;;;5282934;28;20100;-66
2022/04/19 12:24:21;;;;;;;9.98;3.30;;;;;;;;;;5282546;28;20024;-66
2022/04/19 12:27:05;;;;;;;7.00;3.00;;;;;;;;;;5283215;28;20060;-66
2022/04/19 12:29:52;;;;;;;7.63;3.05;;;;;;;;;;5282752;28;20047;-67
2022/04/19 12:32:24;;;;;;;7.28;3.05;;;;;;;;;;5282049;28;20387;-67
2022/04/19 12:35:05;;;;;;;7.85;3.40;;;;;;;;;;5282234;28;20016;-67
2022/04/19 12:37:37;;;;;;;9.00;3.67;;;;;;;;;;5281873;28;20012;-67
2022/04/19 12:40:08;;;;;;;8.00;4.13;;;;;;;;;;5283189;28;20089;-66
2022/04/19 12:42:50;;;;;;;10.80;4.32;;;;;;;;;;5282163;28;20124;-66
2022/04/19 12:45:21;;;;;;;7.72;3.40;;;;;;;;;;5281506;28;20490;-66
2022/04/19 12:47:57;;;;;;;5.38;3.35;;;;;;;;;;5282971;28;20032;-67
2022/04/19 12:50:28;;;;;;;7.85;3.72;;;;;;;;;;5282166;28;20391;-66
2022/04/19 12:53:00;;;;;;;9.60;3.67;;;;;;;;;;5282004;28;20024;-67
2022/04/19 12:55:32;;;;;;;5.50;2.80;;;;;;;;;;5282074;28;20020;-68
2022/04/19 12:58:07;;;;;;;7.32;3.40;;;;;;;;;;5282544;28;20432;-67
2022/04/19 13:00:38;;;;;;;7.47;3.83;;;;;;;;;;5281132;28;20053;-67
2022/04/19 13:03:09;;;;;;;10.47;3.63;;;;;;;;;;5282609;28;20048;-67
2022/04/19 13:14:10;;;;;;;7.38;3.47;;;;;;;;;;5281710;28;20466;-67
2022/04/19 13:16:41;;;;;;;7.45;3.30;;;;;;;;;;5281678;28;20099;-66
2022/04/19 13:19:13;;;;;;;13.70;4.25;;;;;;;;;;5282440;28;20438;-68
2022/04/19 13:21:44;;;;;;;10.02;4.38;;;;;;;;;;5280723;28;20100;-67
2022/04/19 13:24:15;;;;;;;12.00;4.03;;;;;;;;;;5282180;28;20036;-67
2022/04/19 13:26:46;;;;;;;7.30;4.18;;;;;;;;;;5280901;28;20376;-67
2022/04/19 13:29:17;;;;;;;7.70;3.58;;;;;;;;;;5282015;28;20028;-66
2022/04/19 13:31:49;;;;;;;9.43;4.53;;;;;;;;;;5281774;28;20025;-67
2022/04/19 13:34:20;;;;;;;7.37;3.70;;;;;;;;;;5280910;28;20295;-66
2022/04/19 13:36:51;;;;;;;8.20;3.37;;;;;;;;;;5281245;28;20332;-66
2022/04/19 13:39:23;;;;;;;7.85;2.92;;;;;;;;;;5281151;28;20261;-69
2022/04/19 13:41:54;;;;;;;6.60;4.13;;;;;;;;;;5281485;28;20028;-68
2022/04/19 13:44:25;;;;;;;8.27;4.45;;;;;;;;;;5281461;28;20126;-68
2022/04/19 13:46:57;;;;;;;8.00;3.95;;;;;;;;;;5281869;28;20105;-68
2022/04/19 13:49:28;;;;;;;7.60;3.95;;;;;;;;;;5280812;28;20028;-69
2022/04/19 13:52:00;;;;;;;7.15;3.67;;;;;;;;;;5281767;28;20028;-67
2022/04/19 13:54:31;;;;;;;9.02;4.57;;;;;;;;;;5281419;28;20008;-68
2022/04/19 13:57:02;;;;;;;8.73;4.70;;;;;;;;;;5281006;28;20032;-67
2022/04/19 13:59:33;;;;;;;10.25;4.22;;;;;;;;;;5281159;28;20017;-66
2022/04/19 14:02:04;;;;;;;11.23;5.13;;;;;;;;;;5280686;28;20023;-67
2022/04/19 14:04:36;;;;;;;10.07;4.03;;;;;;;;;;5280897;28;20016;-68
2022/04/19 14:07:07;;;;;;;10.25;4.80;;;;;;;;;;5281588;28;20017;-66
2022/04/19 14:09:39;;;;;;;6.55;3.78;;;;;;;;;;5280322;28;20411;-68
2022/04/19 14:12:10;;;;;;;6.13;3.50;;;;;;;;;;5281780;28;20017;-67
2022/04/19 14:14:42;;;;;;;6.25;3.90;;;;;;;;;;5281051;28;20056;-67
2022/04/19 14:17:13;;;;;;;6.78;3.20;;;;;;;;;;5280780;28;20021;-67
2022/04/19 14:19:45;;;;;;;7.20;4.20;;;;;;;;;;5280002;28;20029;-68
2022/04/19 14:22:16;;;;;;;8.73;3.42;;;;;;;;;;5280759;28;20028;-67
2022/04/19 14:24:47;;;;;;;8.52;4.00;;;;;;;;;;5280201;28;20391;-67
2022/04/19 14:27:18;;;;;;;5.47;3.30;;;;;;;;;;5281006;28;20017;-67
2022/04/19 14:35:29;;;;;;;5.75;3.22;;;;;;;;;;5281115;28;20032;-68
2022/04/19 14:38:00;;;;;;;8.90;3.72;;;;;;;;;;5280427;28;20016;-68
2022/04/19 14:40:32;;;;;;;8.55;3.40;;;;;;;;;;5280953;28;20016;-68
2022/04/19 14:43:03;;;;;;;9.52;3.50;;;;;;;;;;5281348;28;20035;-68
2022/04/19 14:45:34;;;;;;;5.95;2.85;;;;;;;;;;5279837;28;20028;-67
2022/04/19 14:48:06;;;;;;;7.63;2.92;;;;;;;;;;5280872;28;20043;-67
2022/04/19 14:52:13;;;;;;;5.78;3.28;;;;;;;;;;5280129;28;20431;-67
2022/04/19 14:53:28;;;;;;;3.53;2.25;;;;;;;;;;5279714;28;20408;-67
2022/04/19 14:56:00;;;;;;;5.55;1.90;;;;;;;;;;5280958;28;20017;-67
2022/04/19 14:58:31;;;;;;;8.52;2.40;;;;;;;;;;5282129;28;20108;-66
2022/04/19 15:01:05;;;;;;;4.85;1.90;;;;;;;;;;5284703;28;20040;-67
2022/04/19 15:03:36;;;;;;;4.32;2.08;;;;;;;;;;5284324;28;20033;-67
2022/04/19 15:06:07;;;;;;;4.18;2.10;;;;;;;;;;5284154;28;20027;-67
2022/04/19 15:08:39;;;;;;;4.07;2.05;;;;;;;;;;5284148;28;20035;-67
2022/04/19 15:11:10;;;;;;;6.65;1.60;;;;;;;;;;5284627;28;20465;-67
2022/04/19 15:13:44;;;;;;;3.95;1.88;;;;;;;;;;5283038;28;20774;-67
2022/04/19 15:16:15;;;;;;;4.65;1.10;;;;;;;;;;5284817;28;20427;-67
2022/04/19 15:18:46;;;;;;;2.97;1.42;;;;;;;;;;5284124;28;20025;-68
2022/04/19 15:21:17;;;;;;;9.95;1.65;;;;;;;;;;5283982;28;20024;-68
2022/04/19 15:23:48;;;;;;;5.32;1.70;;;;;;;;;;5283927;28;20353;-67
2022/04/19 15:26:19;;;;;;;3.17;1.17;;;;;;;;;;5283587;28;20332;-68
2022/04/19 15:28:51;;;;;;;5.65;1.15;;;;;;;;;;5284080;28;20463;-68
2022/04/19 15:31:22;;;;;;;3.78;1.00;;;;;;;;;;5283549;28;20058;-68
2022/04/19 15:33:53;;;;;;;4.20;1.15;;;;;;;;;;5278659;28;20021;-67
2022/04/19 15:36:25;;;;;;;4.97;1.02;;;;;;;;;;5282632;28;20013;-66
2022/04/19 15:38:56;;;;;;;4.93;1.20;;;;;;;;;;5284145;28;20023;-67
2022/04/19 15:41:27;;;;;;;3.10;1.00;;;;;;;;;;5282519;28;20103;-67
2022/04/19 15:43:58;;;;;;;6.03;1.45;;;;;;;;;;5283982;28;20036;-67
2022/04/19 15:46:30;;;;;;;4.60;1.00;;;;;;;;;;5283296;28;20024;-67
2022/04/19 15:49:01;;;;;;;2.77;1.00;;;;;;;;;;5283123;28;20294;-67
2022/04/19 15:51:32;;;;;;;3.53;1.10;;;;;;;;;;5282708;28;20262;-67
2022/04/19 15:54:03;;;;;;;2.58;1.08;;;;;;;;;;5283658;28;20146;-67
2022/04/19 15:56:35;;;;;;;4.55;1.15;;;;;;;;;;5282014;28;20426;-68
2022/04/19 15:59:07;;;;;;;4.90;0.98;;;;;;;;;;5283518;28;20067;-68